Highland Plt, Maine
Current Conditions -  °F | °C
As of 5:15 PM on Thursday 23 Oct 2014 (Local Time) from KWVL Reporting Station
Overcast Overcast  
Wind Chill: 42°   Ceiling: 2000
Heat Index: 48°   Visibility: 3mi
Dew Point: 43°   Wind: 16mph
Humidity: 82%   Direction: 10°N
Pressure: 29.79"   Gusts: NA
Location:  45.0341°N, 70.0886°W
Report Text: KWVL 232115Z 01014KT 3SM SCT013 BKN020 OVC026 09/06 A2979 RMK AO1 P0007
Loading
Personal Weather Stations






























Interactive Weather Map
Tropical Storm Tracking
New forecast layout! Learn more

10-Day Weather Forecast

Advertisements
Track Severe Weather on mobile